Time;durP1;ratioP1;P1;durP2;ratioP2;P2;SDS_P1;SDS_P2;PMS_P1;PMS_P2;Temp;Humidity;BMP_temperature;BMP_pressure;BME280_temperature;BME280_humidity;BME280_pressure;Samples;Min_cycle;Max_cycle;Signal;HPM_P1;HPM_P2
2023/06/12 00:00:41;;;;;;;7.93;4.25;;;;;;;18.41;57.12;93360.97;4968835;28;20097;-72
2023/06/12 00:03:07;;;;;;;5.50;4.68;;;;;;;18.39;58.06;93360.56;4973348;28;20748;-72
2023/06/12 00:05:32;;;;;;;10.52;4.72;;;;;;;18.31;58.24;93361.66;4974294;28;20039;-72
2023/06/12 00:07:58;;;;;;;6.38;4.05;;;;;;;18.24;58.36;93345.44;4975067;28;20034;-72
2023/06/12 00:10:24;;;;;;;8.45;4.32;;;;;;;18.29;58.20;93353.16;4973041;28;20040;-72
2023/06/12 00:12:50;;;;;;;7.70;4.60;;;;;;;18.24;58.68;93356.19;4975356;28;20108;-72
2023/06/12 00:15:15;;;;;;;8.50;3.78;;;;;;;18.29;58.84;93363.94;4973900;28;20049;-72
2023/06/12 00:17:41;;;;;;;8.13;4.40;;;;;;;18.30;58.71;93352.03;4973198;28;20159;-72
2023/06/12 00:20:07;;;;;;;9.65;4.50;;;;;;;18.39;58.91;93368.63;4972434;28;20077;-72
2023/06/12 00:22:39;;;;;;;6.35;5.05;;;;;;;18.34;58.79;93367.06;4975612;28;20023;-72
2023/06/12 00:25:06;;;;;;;9.82;5.25;;;;;;;18.37;59.24;93366.31;4975883;28;20056;-73
2023/06/12 00:27:31;;;;;;;4.97;4.40;;;;;;;18.24;59.63;93351.59;4973127;28;20137;-72
2023/06/12 00:29:57;;;;;;;5.38;4.70;;;;;;;18.31;59.59;93359.72;4973042;28;20034;-71
2023/06/12 00:32:23;;;;;;;9.82;5.60;;;;;;;18.17;59.79;93329.25;4973580;28;20489;-72
2023/06/12 00:34:48;;;;;;;11.25;4.82;;;;;;;18.28;59.69;93346.25;4974762;28;20306;-72
2023/06/12 00:37:14;;;;;;;6.18;4.32;;;;;;;18.32;59.20;93347.06;4967695;28;21111;-72
2023/06/12 00:39:39;;;;;;;6.88;4.78;;;;;;;18.36;58.93;93358.63;4974298;28;20930;-72
2023/06/12 00:42:05;;;;;;;6.82;4.38;;;;;;;18.34;58.98;93358.97;4973219;28;20061;-73
2023/06/12 00:44:31;;;;;;;10.60;4.78;;;;;;;18.30;59.52;93360.09;4974742;28;20133;-72
2023/06/12 00:46:56;;;;;;;4.75;4.03;;;;;;;18.28;59.68;93352.41;4973595;28;20042;-72
2023/06/12 00:49:22;;;;;;;11.98;4.75;;;;;;;18.21;59.85;93340.81;4972790;28;20039;-71
2023/06/12 00:51:48;;;;;;;7.43;5.22;;;;;;;17.95;59.82;93315.59;4975503;28;20465;-73
2023/06/12 00:54:14;;;;;;;9.98;4.45;;;;;;;18.34;60.01;93371.66;4973865;28;20533;-73
2023/06/12 00:56:39;;;;;;;6.55;5.00;;;;;;;18.32;60.20;93363.22;4972509;28;20320;-73
2023/06/12 00:59:06;;;;;;;8.63;4.22;;;;;;;18.24;60.04;93351.59;4974997;28;20509;-71
2023/06/12 01:01:32;;;;;;;7.65;5.00;;;;;;;18.30;60.05;93349.34;4971651;28;20030;-72
2023/06/12 01:03:57;;;;;;;7.70;5.03;;;;;;;18.45;59.41;93364.47;4970270;28;20022;-72
2023/06/12 01:06:37;;;;;;;6.05;5.45;;;;;;;18.40;59.51;93354.03;4973904;28;20038;-72
2023/06/12 01:09:17;;;;;;;5.95;4.65;;;;;;;18.42;59.29;93357.13;4971454;28;20481;-72
2023/06/12 01:11:44;;;;;;;7.90;4.72;;;;;;;18.45;59.83;93356.38;4971588;28;20037;-73
2023/06/12 01:14:15;;;;;;;7.45;4.90;;;;;;;18.47;59.74;93359.47;4974606;28;20038;-73
2023/06/12 01:16:40;;;;;;;7.15;4.75;;;;;;;18.49;59.68;93351.78;4970369;28;20023;-73
2023/06/12 01:19:07;;;;;;;7.38;5.05;;;;;;;18.48;59.50;93354.88;4974366;28;20194;-72
2023/06/12 01:21:33;;;;;;;5.85;5.07;;;;;;;18.38;59.56;93334.81;4973106;28;20540;-72
2023/06/12 01:24:45;;;;;;;8.63;4.57;;;;;;;18.49;59.69;93354.47;4971527;28;20852;-73
2023/06/12 01:27:45;;;;;;;7.50;4.25;;;;;;;18.53;59.95;93352.59;4974786;28;20050;-72
2023/06/12 01:30:32;;;;;;;9.32;4.72;;;;;;;18.54;60.06;93348.75;4976323;28;20125;-72
2023/06/12 01:33:03;;;;;;;7.68;4.10;;;;;;;18.64;58.98;93350.75;4977475;28;20125;-73
2023/06/12 01:35:30;;;;;;;5.53;4.53;;;;;;;18.50;59.06;93352.56;4977012;28;20041;-72
2023/06/12 01:38:14;;;;;;;8.55;4.55;;;;;;;18.36;59.99;93354.00;4977986;28;20034;-72
2023/06/12 01:40:41;;;;;;;9.75;5.10;;;;;;;18.17;60.27;93323.84;4976781;28;21189;-72
2023/06/12 01:43:06;;;;;;;9.85;5.85;;;;;;;18.42;60.16;93357.13;4977877;28;20039;-72
2023/06/12 01:45:33;;;;;;;5.47;4.40;;;;;;;18.44;59.84;93354.81;4976672;28;20539;-72
2023/06/12 01:47:58;;;;;;;7.13;4.82;;;;;;;18.48;59.72;93357.56;4966256;28;20062;-73
2023/06/12 01:50:23;;;;;;;6.70;5.22;;;;;;;18.45;59.90;93356.38;4973398;28;20193;-73
2023/06/12 01:52:49;;;;;;;9.05;5.20;;;;;;;18.42;60.02;93351.75;4977394;28;20529;-72
2023/06/12 01:55:14;;;;;;;6.75;4.82;;;;;;;18.34;60.14;93339.38;4976800;28;20042;-71
2023/06/12 01:57:40;;;;;;;6.15;5.43;;;;;;;18.33;59.85;93329.75;4977603;28;20039;-72
2023/06/12 02:00:07;;;;;;;6.05;5.43;;;;;;;18.38;59.57;93337.50;4976436;28;20038;-71
2023/06/12 02:02:35;;;;;;;5.72;4.90;;;;;;;18.43;59.52;93353.31;4978278;28;20041;-72
2023/06/12 02:05:00;;;;;;;9.57;5.03;;;;;;;18.42;59.55;93357.13;4973592;28;20057;-72
2023/06/12 02:07:25;;;;;;;5.78;4.80;;;;;;;18.32;60.18;93341.66;4975130;28;20030;-73
2023/06/12 02:09:51;;;;;;;6.28;4.75;;;;;;;18.43;60.46;93356.00;4978306;28;20396;-72
2023/06/12 02:12:16;;;;;;;7.03;4.85;;;;;;;18.42;60.35;93351.75;4974835;28;20106;-72
2023/06/12 02:14:41;;;;;;;6.30;4.75;;;;;;;18.31;60.08;93353.56;4973407;28;20093;-72
2023/06/12 02:17:07;;;;;;;10.55;5.28;;;;;;;18.37;60.62;93365.56;4976062;28;20034;-72
2023/06/12 02:19:33;;;;;;;9.07;5.20;;;;;;;18.15;60.54;93329.59;4974785;28;20042;-73
2023/06/12 02:21:59;;;;;;;6.38;5.25;;;;;;;18.40;60.76;93364.78;4976929;28;20026;-73
2023/06/12 02:24:27;;;;;;;7.57;5.10;;;;;;;18.44;60.43;93363.69;4976351;28;20053;-72
2023/06/12 02:26:52;;;;;;;6.70;5.80;;;;;;;18.36;60.09;93358.63;4975160;28;20785;-72
2023/06/12 02:29:18;;;;;;;9.55;4.50;;;;;;;18.36;60.21;93361.31;4977458;28;20061;-71
2023/06/12 02:31:43;;;;;;;7.82;4.55;;;;;;;18.46;59.67;93374.09;4974506;28;20043;-73
2023/06/12 02:34:09;;;;;;;7.78;4.50;;;;;;;18.32;59.45;93349.75;4975314;28;20053;-72
2023/06/12 02:36:39;;;;;;;7.18;5.55;;;;;;;18.36;60.06;93372.06;4974679;28;20038;-72
2023/06/12 02:39:08;;;;;;;7.70;5.07;;;;;;;18.46;59.91;93374.84;4972491;28;20038;-72
2023/06/12 02:41:35;;;;;;;5.90;4.72;;;;;;;18.34;60.06;93366.28;4975763;28;20038;-72
2023/06/12 02:44:00;;;;;;;8.27;5.45;;;;;;;18.43;60.12;93369.44;4974273;28;20505;-72
2023/06/12 02:46:26;;;;;;;5.45;4.57;;;;;;;18.46;59.86;93371.41;4976733;28;20018;-72
2023/06/12 02:48:51;;;;;;;6.65;5.72;;;;;;;18.41;60.06;93366.34;4975793;28;20524;-71
2023/06/12 02:51:16;;;;;;;6.90;5.28;;;;;;;18.34;60.02;93366.28;4976383;28;20034;-71
2023/06/12 02:53:42;;;;;;;10.90;5.38;;;;;;;18.31;60.03;93364.34;4976638;28;20042;-72
2023/06/12 02:56:07;;;;;;;8.13;5.07;;;;;;;18.38;60.01;93377.88;4974699;28;20563;-72
2023/06/12 02:58:33;;;;;;;11.32;5.57;;;;;;;18.41;60.24;93387.88;4975777;28;20027;-72
2023/06/12 03:00:59;;;;;;;7.43;5.20;;;;;;;18.41;60.15;93385.97;4977660;28;20022;-71
2023/06/12 03:03:25;;;;;;;8.50;5.05;;;;;;;18.32;60.20;93369.38;4973437;28;20093;-72
2023/06/12 03:05:50;;;;;;;7.40;5.78;;;;;;;18.36;60.83;93383.63;4975032;28;20045;-72
2023/06/12 03:08:16;;;;;;;9.45;5.53;;;;;;;18.46;60.61;93391.00;4974460;28;20543;-72
2023/06/12 03:10:44;;;;;;;9.77;5.95;;;;;;;18.50;60.41;93396.41;4974364;28;20408;-73
2023/06/12 03:13:12;;;;;;;6.55;5.22;;;;;;;18.44;59.79;93387.13;4975141;28;20022;-72
2023/06/12 03:15:38;;;;;;;8.50;6.15;;;;;;;18.48;60.21;93397.94;4975128;28;20039;-73
2023/06/12 03:18:03;;;;;;;5.88;5.18;;;;;;;18.46;59.84;93395.63;4972924;28;20049;-72
2023/06/12 03:20:32;;;;;;;10.77;5.85;;;;;;;18.42;59.89;93392.13;4974792;28;20543;-72
2023/06/12 03:22:58;;;;;;;7.90;5.53;;;;;;;18.44;60.16;93398.69;4973387;28;20397;-72
2023/06/12 03:25:23;;;;;;;7.47;5.70;;;;;;;18.32;60.17;93387.44;4974649;28;20030;-72
2023/06/12 03:27:49;;;;;;;5.88;5.03;;;;;;;18.33;60.57;93391.69;4973248;28;20145;-73
2023/06/12 03:30:14;;;;;;;8.02;5.13;;;;;;;18.34;61.21;93398.59;4974338;28;20485;-72
2023/06/12 03:32:40;;;;;;;8.98;6.57;;;;;;;18.31;60.69;93385.88;4975404;28;20581;-73
2023/06/12 03:35:06;;;;;;;10.43;5.88;;;;;;;18.33;60.96;93386.28;4975137;28;20045;-71
2023/06/12 03:37:31;;;;;;;7.25;5.38;;;;;;;18.24;61.57;93383.09;4975166;28;20022;-73
2023/06/12 03:39:57;;;;;;;7.88;6.03;;;;;;;18.52;61.00;93391.44;4973793;28;21120;-72
2023/06/12 03:42:22;;;;;;;11.00;6.93;;;;;;;18.40;61.63;93380.94;4974614;28;20092;-71
2023/06/12 03:44:48;;;;;;;11.48;6.18;;;;;;;18.42;61.73;93390.22;4973789;28;20449;-72
2023/06/12 03:47:14;;;;;;;8.02;6.20;;;;;;;18.23;61.11;93368.91;4973490;28;20038;-72
2023/06/12 03:49:40;;;;;;;7.10;6.07;;;;;;;18.42;61.15;93390.22;4970121;28;21088;-72
2023/06/12 03:52:06;;;;;;;11.75;6.93;;;;;;;18.32;61.46;93377.44;4976027;28;20485;-72
2023/06/12 03:54:31;;;;;;;7.00;6.30;;;;;;;18.43;61.44;93391.00;4973414;28;20092;-72
2023/06/12 03:56:57;;;;;;;11.55;6.72;;;;;;;18.37;61.55;93379.78;4973943;28;20690;-71
2023/06/12 03:59:22;;;;;;;10.30;6.78;;;;;;;18.38;61.28;93367.84;4972034;28;20038;-73
2023/06/12 04:01:48;;;;;;;9.88;6.53;;;;;;;18.43;60.72;93364.06;4975025;28;20105;-71
2023/06/12 04:04:14;;;;;;;8.68;6.05;;;;;;;18.66;60.05;93378.09;4974886;28;20635;-72
2023/06/12 04:06:41;;;;;;;7.45;6.65;;;;;;;18.51;60.56;93381.03;4973083;28;20046;-72
2023/06/12 04:09:08;;;;;;;11.27;6.80;;;;;;;18.54;60.62;93391.06;4973817;28;20053;-72
2023/06/12 04:11:40;;;;;;;10.40;6.57;;;;;;;18.53;61.09;93395.66;4974732;28;20122;-72
2023/06/12 04:14:06;;;;;;;9.13;6.57;;;;;;;18.58;61.17;93392.63;4974160;28;20117;-72
2023/06/12 04:16:32;;;;;;;10.20;6.35;;;;;;;18.57;60.74;93393.03;4973048;28;20418;-72
2023/06/12 04:19:03;;;;;;;7.82;6.45;;;;;;;18.41;60.61;93382.50;4975000;28;20101;-71
2023/06/12 04:21:33;;;;;;;10.55;7.05;;;;;;;18.45;60.49;93388.69;4973892;28;20468;-72
2023/06/12 04:24:03;;;;;;;9.60;6.75;;;;;;;18.52;61.14;93399.53;4972403;28;20473;-72
2023/06/12 04:26:29;;;;;;;12.13;6.72;;;;;;;18.50;61.06;93401.81;4974254;28;20453;-72
2023/06/12 04:28:56;;;;;;;11.23;6.65;;;;;;;18.72;60.15;93402.78;4974325;28;20518;-72
2023/06/12 04:31:21;;;;;;;10.45;7.45;;;;;;;18.65;59.99;93384.63;4974697;28;20037;-72
2023/06/12 04:33:51;;;;;;;10.32;7.95;;;;;;;18.83;60.51;93395.53;4971901;28;20489;-73
2023/06/12 04:36:17;;;;;;;12.07;7.38;;;;;;;18.75;61.55;93392.03;4973226;28;20124;-72
2023/06/12 04:38:50;;;;;;;10.90;7.10;;;;;;;19.05;59.67;93388.38;4973313;28;20038;-72
2023/06/12 04:41:24;;;;;;;13.02;7.80;;;;;;;18.98;59.81;93391.78;4972406;28;20034;-72
2023/06/12 04:43:58;;;;;;;11.07;7.63;;;;;;;18.66;60.04;93394.25;4973133;28;20121;-71
2023/06/12 04:46:25;;;;;;;13.70;7.97;;;;;;;18.69;60.57;93381.94;4972910;28;20511;-72
2023/06/12 04:48:51;;;;;;;10.15;8.93;;;;;;;18.60;60.58;93368.81;4974245;28;20042;-72
2023/06/12 04:51:17;;;;;;;13.80;9.10;;;;;;;18.95;60.25;93383.69;4973370;28;20249;-72
2023/06/12 04:53:43;;;;;;;10.35;9.30;;;;;;;19.01;59.27;93369.50;4972749;28;20030;-72
2023/06/12 04:56:09;;;;;;;17.17;8.73;;;;;;;18.87;59.31;93377.50;4971901;28;20120;-72
2023/06/12 04:58:40;;;;;;;10.60;9.05;;;;;;;18.85;59.42;93383.25;4973426;28;20513;-74
2023/06/12 05:01:06;;;;;;;9.48;7.75;;;;;;;18.66;60.22;93382.69;4974287;28;20026;-72
2023/06/12 05:03:33;;;;;;;14.63;8.60;;;;;;;18.78;60.22;93382.41;4976139;28;20393;-73
2023/06/12 05:05:58;;;;;;;16.73;9.23;;;;;;;18.96;60.42;93394.09;4975770;28;20066;-72
2023/06/12 05:08:24;;;;;;;11.80;8.93;;;;;;;18.88;59.95;93382.50;4973565;28;20121;-72
2023/06/12 05:10:49;;;;;;;12.75;8.57;;;;;;;19.06;60.06;93389.94;4975169;28;20445;-72
2023/06/12 05:13:15;;;;;;;12.75;9.00;;;;;;;19.06;60.25;93390.69;4993095;28;20117;-73
2023/06/12 05:15:40;;;;;;;10.75;8.18;;;;;;;18.99;60.00;93384.47;4972654;28;20038;-73
2023/06/12 05:18:05;;;;;;;13.88;8.80;;;;;;;19.20;59.19;93390.00;4977151;28;20089;-73
2023/06/12 05:20:31;;;;;;;11.30;8.75;;;;;;;19.02;60.20;93394.53;4976510;28;20180;-73
2023/06/12 05:22:56;;;;;;;11.27;9.30;;;;;;;19.06;60.53;93392.63;4976586;28;20641;-72
2023/06/12 05:25:21;;;;;;;17.92;9.75;;;;;;;19.12;60.38;93388.41;4978432;28;20034;-72
2023/06/12 05:27:47;;;;;;;13.85;9.85;;;;;;;18.87;60.46;93391.72;4974455;28;20082;-73
2023/06/12 05:30:12;;;;;;;16.40;10.35;;;;;;;19.00;60.83;93392.19;4974783;28;21076;-72
2023/06/12 05:32:38;;;;;;;12.27;10.20;;;;;;;19.01;59.67;93391.06;4977023;28;20108;-73
2023/06/12 05:35:03;;;;;;;13.27;10.60;;;;;;;19.23;60.03;93408.88;4977505;28;20109;-73
2023/06/12 05:37:29;;;;;;;13.85;11.05;;;;;;;19.05;60.09;93391.84;4977378;28;20030;-73
2023/06/12 05:39:54;;;;;;;22.00;11.35;;;;;;;19.11;60.46;93408.44;4973378;28;20037;-72
2023/06/12 05:42:20;;;;;;;15.20;10.52;;;;;;;19.08;60.98;93398.38;4974631;28;21127;-73
2023/06/12 05:44:48;;;;;;;16.38;10.65;;;;;;;19.20;61.14;93419.66;4973595;28;20137;-73
2023/06/12 05:47:14;;;;;;;14.95;10.57;;;;;;;19.29;60.11;93412.00;4977206;28;20042;-73
2023/06/12 05:49:39;;;;;;;14.45;11.20;;;;;;;19.39;60.14;93419.38;4975038;28;20037;-74
2023/06/12 05:52:06;;;;;;;12.88;10.35;;;;;;;19.60;59.20;93406.00;4977836;28;20025;-71
2023/06/12 05:54:31;;;;;;;14.20;10.00;;;;;;;19.40;59.86;93404.75;4977164;28;20129;-73
2023/06/12 05:56:57;;;;;;;13.05;10.00;;;;;;;19.29;60.49;93410.06;4975694;28;20654;-73
2023/06/12 05:59:23;;;;;;;13.52;10.35;;;;;;;19.46;60.64;93413.25;4975116;28;20121;-73
2023/06/12 06:01:49;;;;;;;12.27;10.02;;;;;;;19.43;60.16;93417.47;4975469;28;20035;-73
2023/06/12 06:04:16;;;;;;;15.52;11.30;;;;;;;19.24;60.21;93396.19;4977862;28;20335;-73
2023/06/12 06:06:41;;;;;;;15.60;10.63;;;;;;;19.53;59.11;93416.00;4975802;28;20046;-73
2023/06/12 06:09:07;;;;;;;17.67;11.27;;;;;;;19.36;58.68;93409.31;4975612;28;20058;-73
2023/06/12 06:11:33;;;;;;;12.68;10.63;;;;;;;19.30;58.41;93384.66;4974957;28;20444;-72
2023/06/12 06:13:58;;;;;;;12.15;10.55;;;;;;;19.42;58.94;93407.81;4976231;28;20117;-71
2023/06/12 06:16:24;;;;;;;12.70;10.18;;;;;;;19.38;59.42;93396.25;4967525;28;20381;-73
2023/06/12 06:18:50;;;;;;;12.23;10.02;;;;;;;19.38;59.28;93400.88;4974107;28;20417;-73
2023/06/12 06:21:15;;;;;;;17.48;10.90;;;;;;;19.44;59.98;93415.53;4976083;28;20038;-73
2023/06/12 06:23:41;;;;;;;27.23;11.68;;;;;;;19.52;59.81;93409.81;4975650;28;20449;-73
2023/06/12 06:26:08;;;;;;;14.18;10.85;;;;;;;19.56;58.66;93412.53;4976277;28;20049;-73
2023/06/12 06:28:34;;;;;;;16.75;11.43;;;;;;;19.55;59.58;93406.38;4965758;28;20085;-74
2023/06/12 06:30:59;;;;;;;18.50;11.00;;;;;;;19.43;60.33;93412.06;4968245;28;21269;-73
2023/06/12 06:33:25;;;;;;;16.65;11.93;;;;;;;19.51;60.36;93410.97;4974449;28;20031;-73
2023/06/12 06:35:51;;;;;;;21.30;12.32;;;;;;;19.64;60.28;93398.72;4974296;28;20034;-73
2023/06/12 06:38:20;;;;;;;15.27;10.30;;;;;;;19.75;60.58;93396.81;4975947;28;20045;-73
2023/06/12 06:40:46;;;;;;;24.27;13.07;;;;;;;19.62;59.85;93390.22;4973217;28;20121;-73
2023/06/12 06:43:12;;;;;;;17.73;10.80;;;;;;;19.66;58.74;93411.81;4977791;28;20040;-73
2023/06/12 06:45:37;;;;;;;16.58;9.57;;;;;;;19.74;58.54;93402.59;4972499;28;20062;-71
2023/06/12 06:48:02;;;;;;;14.63;11.68;;;;;;;19.40;59.36;93415.53;4973898;28;20046;-73
2023/06/12 06:50:28;;;;;;;16.00;10.82;;;;;;;19.65;58.30;93411.03;4975576;28;20465;-72
2023/06/12 06:52:53;;;;;;;12.57;9.85;;;;;;;19.58;58.51;93408.31;4973564;28;20034;-73
2023/06/12 06:55:19;;;;;;;14.02;10.50;;;;;;;19.71;58.29;93393.31;4976940;28;20474;-73
2023/06/12 06:57:45;;;;;;;20.60;10.27;;;;;;;19.65;58.22;93404.88;4975602;28;20038;-73
2023/06/12 07:00:11;;;;;;;17.70;10.68;;;;;;;19.83;57.64;93388.75;4973276;28;20484;-73
2023/06/12 07:02:38;;;;;;;12.25;9.32;;;;;;;19.53;58.13;93387.09;4975623;28;20031;-73
2023/06/12 07:05:04;;;;;;;22.42;9.75;;;;;;;19.37;58.62;93367.72;4972490;28;20043;-74
2023/06/12 07:07:29;;;;;;;13.00;9.18;;;;;;;19.60;58.36;93399.84;4974131;28;20026;-73
2023/06/12 07:09:55;;;;;;;12.63;8.90;;;;;;;19.60;58.41;93406.00;4975940;28;20101;-74
2023/06/12 07:12:20;;;;;;;16.45;9.90;;;;;;;19.61;57.58;93391.38;4974126;28;20132;-74
2023/06/12 07:14:46;;;;;;;15.88;8.70;;;;;;;19.58;57.18;93380.56;4976297;28;20041;-74
2023/06/12 07:17:11;;;;;;;18.98;8.27;;;;;;;19.72;56.47;93400.28;4975843;28;20042;-72
2023/06/12 07:19:37;;;;;;;12.00;7.43;;;;;;;19.74;56.11;93408.00;4969962;28;20038;-74
2023/06/12 07:22:02;;;;;;;13.10;6.90;;;;;;;19.56;56.75;93385.56;4974368;28;20030;-74
2023/06/12 07:24:28;;;;;;;11.40;6.03;;;;;;;19.67;55.85;93397.94;4975267;28;20030;-74
2023/06/12 07:26:53;;;;;;;11.10;7.22;;;;;;;19.48;56.13;93384.00;4975940;28;20127;-73
2023/06/12 07:29:19;;;;;;;14.23;7.30;;;;;;;19.91;55.56;93411.88;4978113;28;20548;-74
2023/06/12 07:31:47;;;;;;;14.82;6.82;;;;;;;19.96;55.55;93408.81;4976236;28;20540;-74
2023/06/12 07:34:12;;;;;;;10.35;5.70;;;;;;;19.82;54.71;93406.84;4974420;28;20477;-74
2023/06/12 07:36:37;;;;;;;17.58;6.65;;;;;;;19.95;54.87;93412.66;4974782;28;20087;-74
2023/06/12 07:39:03;;;;;;;12.60;6.60;;;;;;;19.94;55.17;93397.66;4976810;28;20118;-74
2023/06/12 07:41:28;;;;;;;8.60;6.40;;;;;;;20.09;55.33;93396.53;4974680;28;20047;-73
2023/06/12 07:43:54;;;;;;;9.90;5.65;;;;;;;20.38;56.20;93403.56;4976001;28;20079;-74
2023/06/12 08:55:07;;;;;;;8.73;5.10;;;;;;;20.86;57.96;93417.44;4928656;28;20121;-74
2023/06/12 08:57:35;;;;;;;4.97;4.20;;;;;;;20.88;57.74;93414.38;4974704;28;20683;-74
2023/06/12 09:00:00;;;;;;;7.63;5.20;;;;;;;20.59;58.87;93417.06;4970529;28;20039;-73
2023/06/12 09:02:27;;;;;;;7.35;4.85;;;;;;;20.53;60.53;93415.13;4975059;28;20038;-74
2023/06/12 09:05:02;;;;;;;12.95;5.70;;;;;;;20.70;60.03;93417.06;4970711;28;20034;-74
2023/06/12 09:07:29;;;;;;;6.68;5.13;;;;;;;20.62;62.54;93418.22;4973494;28;20578;-75
2023/06/12 09:09:55;;;;;;;6.82;5.22;;;;;;;20.63;63.30;93416.31;4972096;28;20026;-74
2023/06/12 09:12:21;;;;;;;10.30;5.57;;;;;;;20.72;63.59;93414.75;4970937;28;20686;-75
2023/06/12 09:14:50;;;;;;;8.60;6.82;;;;;;;20.68;62.92;93413.22;4973696;28;20053;-74
2023/06/12 09:17:16;;;;;;;11.60;7.82;;;;;;;20.68;61.93;93399.69;4972909;28;20054;-74
2023/06/12 09:19:43;;;;;;;15.40;9.68;;;;;;;20.57;62.07;93386.97;4973057;28;20345;-75
2023/06/12 09:22:09;;;;;;;27.55;14.43;;;;;;;20.78;61.78;93407.00;4971152;28;20027;-74
2023/06/12 09:24:35;;;;;;;15.35;9.27;;;;;;;20.80;63.30;93408.19;4973537;28;20042;-73
2023/06/12 09:27:02;;;;;;;7.15;5.15;;;;;;;20.62;63.00;93402.00;4970830;28;20670;-75
2023/06/12 09:29:31;;;;;;;5.90;4.03;;;;;;;20.67;61.82;93404.34;4973076;28;20039;-74
2023/06/12 09:32:06;;;;;;;6.22;4.40;;;;;;;20.75;59.91;93399.69;4972417;28;20872;-75
2023/06/12 09:34:33;;;;;;;6.78;3.70;;;;;;;20.66;59.61;93397.38;4973928;28;20029;-74
2023/06/12 09:37:00;;;;;;;8.00;4.82;;;;;;;20.33;60.03;93374.22;4971765;28;20455;-74
2023/06/12 09:39:29;;;;;;;6.40;4.07;;;;;;;20.47;59.86;93390.44;4972907;28;20137;-74
2023/06/12 09:41:56;;;;;;;10.90;5.03;;;;;;;20.29;61.72;93381.53;4970392;28;20042;-73
2023/06/12 09:44:22;;;;;;;6.68;3.38;;;;;;;20.38;60.89;93387.34;4972448;28;20577;-75
2023/06/12 09:46:49;;;;;;;6.07;3.25;;;;;;;20.31;59.88;93381.16;4973957;28;20472;-75
2023/06/12 09:49:19;;;;;;;8.25;3.35;;;;;;;20.33;61.23;93379.63;4978000;28;20184;-74
2023/06/12 09:51:50;;;;;;;6.55;3.83;;;;;;;20.45;60.24;93373.06;4977221;28;20038;-73
2023/06/12 09:54:16;;;;;;;5.82;3.38;;;;;;;20.40;61.40;93352.59;4977304;28;20125;-74
2023/06/12 09:56:45;;;;;;;9.23;4.15;;;;;;;20.28;62.58;93377.31;4975559;28;20054;-73
2023/06/12 09:59:19;;;;;;;9.27;3.00;;;;;;;20.16;61.70;93367.63;4975054;28;20084;-73
2023/06/12 10:01:51;;;;;;;6.32;3.17;;;;;;;20.13;61.27;93386.50;4974216;28;20062;-74
2023/06/12 10:04:28;;;;;;;9.25;3.22;;;;;;;20.03;62.55;93384.56;4976182;28;20088;-73
2023/06/12 10:07:00;;;;;;;6.53;2.85;;;;;;;20.11;63.80;93378.78;4976551;28;20616;-73
2023/06/12 10:09:27;;;;;;;4.25;3.20;;;;;;;20.16;63.21;93375.72;4972835;28;20280;-74
2023/06/12 10:11:53;;;;;;;4.90;3.22;;;;;;;20.22;63.74;93375.34;4974771;28;20669;-73
2023/06/12 10:14:19;;;;;;;4.78;3.03;;;;;;;20.32;62.95;93374.59;4979065;28;20118;-73
2023/06/12 10:16:47;;;;;;;5.68;3.45;;;;;;;20.22;64.14;93372.66;4975881;28;20067;-73
2023/06/12 10:19:14;;;;;;;3.53;2.72;;;;;;;20.34;63.10;93364.94;4965346;28;20022;-73
2023/06/12 10:21:41;;;;;;;5.18;3.72;;;;;;;20.27;63.94;93375.75;4978630;28;20261;-74
2023/06/12 10:24:07;;;;;;;4.22;2.95;;;;;;;20.37;63.13;93375.00;4991774;28;20065;-74
2023/06/12 10:26:35;;;;;;;3.72;3.08;;;;;;;20.38;63.24;93370.38;4984583;28;20034;-74
2023/06/12 10:29:00;;;;;;;6.10;3.45;;;;;;;20.31;63.75;93365.72;4977708;28;20035;-74
2023/06/12 10:31:27;;;;;;;9.10;3.00;;;;;;;20.23;62.69;93369.59;4977952;28;20103;-74
2023/06/12 10:34:03;;;;;;;7.28;3.88;;;;;;;20.11;62.37;93361.81;4976242;28;20563;-74
2023/06/12 10:36:41;;;;;;;16.52;3.85;;;;;;;20.12;61.40;93363.38;4976653;28;20042;-74
2023/06/12 10:39:14;;;;;;;4.78;3.65;;;;;;;20.17;63.24;93357.63;4976900;28;20038;-74
2023/06/12 10:41:55;;;;;;;4.57;3.63;;;;;;;20.11;64.34;93351.00;4976217;28;20559;-73
2023/06/12 10:44:52;;;;;;;5.38;3.78;;;;;;;20.19;64.40;93355.28;4967369;28;20667;-73
2023/06/12 10:47:23;;;;;;;4.32;3.53;;;;;;;20.24;63.41;93354.91;4957839;28;20658;-73
2023/06/12 10:50:01;;;;;;;5.55;3.78;;;;;;;20.11;63.88;93361.81;4976487;28;20100;-75
2023/06/12 10:52:27;;;;;;;4.82;3.83;;;;;;;20.12;64.38;93355.25;4973913;28;20141;-74
2023/06/12 10:55:20;;;;;;;5.07;3.88;;;;;;;20.14;64.20;93356.41;4975672;28;20058;-75
2023/06/12 10:57:57;;;;;;;4.10;3.53;;;;;;;20.15;63.00;93347.16;4978117;28;20591;-74
2023/06/12 11:00:36;;;;;;;4.30;3.63;;;;;;;20.22;61.98;93348.34;4977801;28;20088;-74
2023/06/12 11:03:11;;;;;;;6.45;3.88;;;;;;;20.26;62.80;93338.31;4974007;28;20540;-74
2023/06/12 11:05:37;;;;;;;6.10;3.67;;;;;;;20.25;64.36;93336.78;4974600;28;20065;-75
2023/06/12 11:08:06;;;;;;;6.68;3.85;;;;;;;20.27;64.43;93335.25;4975394;28;20148;-73
2023/06/12 11:10:46;;;;;;;7.47;5.00;;;;;;;20.37;65.69;93326.38;4977052;28;20902;-74
2023/06/12 11:13:12;;;;;;;4.35;3.95;;;;;;;20.51;64.22;93326.38;4974191;28;20377;-73
2023/06/12 11:15:42;;;;;;;5.35;3.45;;;;;;;20.54;64.35;93314.00;4974836;28;20038;-74
2023/06/12 11:18:09;;;;;;;8.18;4.63;;;;;;;20.46;64.80;93313.25;4970388;28;20745;-74
2023/06/12 11:20:35;;;;;;;6.65;3.85;;;;;;;20.56;63.96;93325.97;4962693;28;20038;-75
2023/06/12 11:23:01;;;;;;;6.22;3.42;;;;;;;20.62;63.27;93323.66;4968258;28;20479;-75
2023/06/12 11:25:30;;;;;;;5.20;3.38;;;;;;;20.70;59.99;93305.50;4966359;28;20030;-74
2023/06/12 11:27:56;;;;;;;3.90;3.17;;;;;;;20.83;56.81;93318.22;4965398;28;20104;-73
2023/06/12 11:30:24;;;;;;;4.10;3.70;;;;;;;21.05;57.47;93320.91;4965396;28;20481;-74
2023/06/12 11:32:49;;;;;;;5.30;3.30;;;;;;;21.12;57.70;93321.63;4980568;28;20702;-74
2023/06/12 11:35:16;;;;;;;6.32;4.07;;;;;;;21.11;59.87;93314.72;4964661;28;20072;-74
2023/06/12 11:37:41;;;;;;;4.32;3.67;;;;;;;21.22;55.24;93328.94;4965437;28;20556;-75
2023/06/12 11:40:11;;;;;;;4.55;4.10;;;;;;;21.25;56.85;93327.41;4965875;28;20199;-74
2023/06/12 11:42:40;;;;;;;3.83;3.53;;;;;;;21.21;59.67;93318.53;4965023;28;20038;-75
2023/06/12 11:45:09;;;;;;;4.35;3.75;;;;;;;21.31;62.29;93329.31;4960056;28;20457;-74
2023/06/12 11:47:38;;;;;;;4.25;3.85;;;;;;;21.27;59.50;93317.72;4966785;28;20666;-74
2023/06/12 11:50:09;;;;;;;6.38;3.30;;;;;;;21.28;55.30;93313.09;4967160;28;20049;-75
2023/06/12 11:52:36;;;;;;;3.92;3.40;;;;;;;21.46;52.34;93314.56;4964101;28;20026;-76
2023/06/12 11:55:08;;;;;;;4.78;3.58;;;;;;;21.42;53.09;93313.81;4964396;28;20042;-74
2023/06/12 11:57:35;;;;;;;5.90;3.42;;;;;;;21.54;52.20;93309.91;4965478;28;20046;-75
2023/06/12 12:00:07;;;;;;;5.00;3.30;;;;;;;21.55;53.22;93302.59;4966246;28;20117;-74
2023/06/12 12:02:39;;;;;;;3.95;3.10;;;;;;;21.67;50.14;93299.41;4966140;28;20528;-74
2023/06/12 12:05:06;;;;;;;5.05;2.67;;;;;;;21.58;49.35;93304.50;4965929;28;20546;-74
2023/06/12 12:07:32;;;;;;;3.53;2.50;;;;;;;21.63;47.02;93290.56;4966145;28;20026;-75
2023/06/12 12:10:08;;;;;;;4.47;2.70;;;;;;;21.51;46.17;93272.03;4965264;28;20460;-74
2023/06/12 12:12:51;;;;;;;5.63;2.72;;;;;;;21.51;46.97;93250.41;4974660;28;20101;-75
2023/06/12 12:15:20;;;;;;;4.95;2.55;;;;;;;21.96;50.01;93286.47;4966486;28;20038;-74
2023/06/12 12:17:46;;;;;;;4.18;2.88;;;;;;;22.21;50.91;93287.88;4962082;28;20056;-74
2023/06/12 12:20:23;;;;;;;5.50;3.13;;;;;;;22.11;48.80;93285.97;4971397;28;20618;-74
2023/06/12 12:22:50;;;;;;;5.38;2.72;;;;;;;22.22;50.26;93278.56;4973919;28;20397;-74
2023/06/12 12:25:21;;;;;;;9.20;3.45;;;;;;;22.11;45.74;93293.31;4974087;28;20612;-73
2023/06/12 12:27:49;;;;;;;4.40;2.70;;;;;;;21.77;46.97;93285.06;4972897;28;20047;-74
2023/06/12 12:30:36;;;;;;;8.20;3.47;;;;;;;21.98;49.25;93295.75;4973881;28;20647;-74
2023/06/12 12:33:02;;;;;;;5.60;3.67;;;;;;;21.37;49.50;93268.22;4975082;28;20390;-73
2023/06/12 12:35:27;;;;;;;11.52;4.07;;;;;;;21.22;51.71;93247.06;4973566;28;20073;-73
2023/06/12 12:37:55;;;;;;;9.45;3.95;;;;;;;21.14;54.09;93265.25;4972069;28;20192;-74
2023/06/12 12:40:23;;;;;;;9.38;4.60;;;;;;;20.92;55.94;93307.03;4972814;28;20132;-74